Time;durP1;ratioP1;P1;durP2;ratioP2;P2;SDS_P1;SDS_P2;PMS_P1;PMS_P2;Temp;Humidity;BMP_temperature;BMP_pressure;BME280_temperature;BME280_humidity;BME280_pressure;Samples;Min_cycle;Max_cycle;Signal;HPM_P1;HPM_P2
2023/08/20 00:00:56;;;;;;;4.40;2.03;;;18.90;99.90;;;;;;5008370;28;20037;-80
2023/08/20 00:03:23;;;;;;;9.73;3.90;;;19.00;99.90;;;;;;4998948;28;20028;-79
2023/08/20 00:05:51;;;;;;;5.07;3.00;;;18.90;99.90;;;;;;5013401;28;20037;-76
2023/08/20 00:08:18;;;;;;;7.43;2.83;;;18.90;99.90;;;;;;4998728;28;20036;-81
2023/08/20 00:10:45;;;;;;;5.78;2.20;;;18.80;99.90;;;;;;5015364;28;20021;-80
2023/08/20 00:13:11;;;;;;;6.65;2.30;;;18.70;99.90;;;;;;4997672;28;20606;-83
2023/08/20 00:15:38;;;;;;;5.35;2.20;;;18.80;99.90;;;;;;4980837;28;20036;-80
2023/08/20 00:18:05;;;;;;;5.93;2.50;;;18.80;99.90;;;;;;5019944;28;20032;-82
2023/08/20 00:20:32;;;;;;;5.80;1.73;;;18.80;99.90;;;;;;5021459;28;20041;-76
2023/08/20 00:22:58;;;;;;;5.18;1.95;;;18.90;99.90;;;;;;5000477;28;20051;-82
2023/08/20 00:25:25;;;;;;;5.05;1.83;;;18.90;99.90;;;;;;5024964;28;20400;-79
2023/08/20 00:27:51;;;;;;;6.80;1.67;;;19.00;99.90;;;;;;5012770;28;20029;-77
2023/08/20 00:30:18;;;;;;;5.45;1.83;;;19.00;99.90;;;;;;4997374;28;20037;-80
2023/08/20 00:32:45;;;;;;;4.88;1.65;;;19.00;99.90;;;;;;5011202;28;20037;-80
2023/08/20 00:35:12;;;;;;;4.45;1.23;;;18.90;99.90;;;;;;5011368;28;20037;-80
2023/08/20 00:37:38;;;;;;;4.35;1.90;;;18.80;99.90;;;;;;4979603;28;20067;-76
2023/08/20 00:40:06;;;;;;;7.60;1.52;;;18.70;99.90;;;;;;5002295;28;20809;-80
2023/08/20 00:42:32;;;;;;;4.00;1.30;;;18.70;99.90;;;;;;4988583;28;20053;-79
2023/08/20 00:44:58;;;;;;;3.90;1.45;;;18.60;99.90;;;;;;5004011;28;20033;-79
2023/08/20 00:47:25;;;;;;;3.47;1.48;;;18.50;99.90;;;;;;5007683;28;20391;-77
2023/08/20 00:49:52;;;;;;;4.53;1.55;;;18.50;99.90;;;;;;5028115;28;20861;-80
2023/08/20 00:52:20;;;;;;;5.53;1.80;;;18.40;99.90;;;;;;5008840;28;20033;-78
2023/08/20 00:54:48;;;;;;;4.65;1.13;;;18.40;99.90;;;;;;4994145;28;20388;-79
2023/08/20 00:57:17;;;;;;;4.75;1.40;;;18.30;99.90;;;;;;4992022;28;20604;-80
2023/08/20 00:59:44;;;;;;;3.25;1.00;;;18.30;99.90;;;;;;4994524;28;20049;-79
2023/08/20 01:02:11;;;;;;;3.38;1.02;;;18.20;99.90;;;;;;5000253;28;20037;-81
2023/08/20 01:04:37;;;;;;;4.80;1.92;;;18.20;99.90;;;;;;5021086;28;20041;-77
2023/08/20 01:07:28;;;;;;;3.33;1.40;;;18.20;99.90;;;;;;5036835;28;20075;-76
2023/08/20 01:10:08;;;;;;;3.38;1.00;;;18.20;99.90;;;;;;5016690;28;20517;-77
2023/08/20 01:12:36;;;;;;;4.28;1.20;;;18.20;99.90;;;;;;4994542;28;20032;-80
2023/08/20 01:15:02;;;;;;;4.25;1.63;;;18.20;99.90;;;;;;4995123;28;20388;-80
2023/08/20 01:17:30;;;;;;;6.03;2.00;;;18.10;99.90;;;;;;5011162;28;20045;-77
2023/08/20 01:19:58;;;;;;;4.25;1.38;;;18.20;99.90;;;;;;5009626;28;20040;-78
2023/08/20 01:22:44;;;;;;;6.00;2.17;;;18.20;99.90;;;;;;4979759;28;20601;-78
2023/08/20 01:25:39;;;;;;;4.22;1.80;;;18.20;99.90;;;;;;5019156;28;20357;-79
2023/08/20 01:28:20;;;;;;;3.85;2.20;;;18.30;99.90;;;;;;5019856;28;20036;-79
2023/08/20 01:30:48;;;;;;;4.00;1.45;;;18.40;99.90;;;;;;5004643;28;20416;-79
2023/08/20 01:33:15;;;;;;;3.67;2.08;;;18.40;99.90;;;;;;5011031;28;20778;-80
2023/08/20 01:35:41;;;;;;;4.35;1.70;;;18.50;99.90;;;;;;4977972;28;20029;-77
2023/08/20 01:38:15;;;;;;;4.22;1.67;;;18.50;99.90;;;;;;5011932;28;20085;-79
2023/08/20 01:40:41;;;;;;;5.57;1.55;;;18.60;99.90;;;;;;4994128;28;20033;-76
2023/08/20 01:43:08;;;;;;;7.15;2.03;;;18.60;99.90;;;;;;4994038;28;20037;-79
2023/08/20 01:45:34;;;;;;;4.00;1.63;;;18.70;99.90;;;;;;5008243;28;21101;-77
2023/08/20 01:48:01;;;;;;;5.97;1.65;;;18.60;99.90;;;;;;5014707;28;20378;-79
2023/08/20 01:50:27;;;;;;;4.03;1.52;;;18.60;99.90;;;;;;5020530;28;20029;-81
2023/08/20 01:52:53;;;;;;;5.53;1.40;;;18.60;99.90;;;;;;5001229;28;20043;-79
2023/08/20 01:55:20;;;;;;;3.47;1.60;;;18.60;99.90;;;;;;4993693;28;20025;-79
2023/08/20 01:57:47;;;;;;;5.28;2.25;;;18.50;99.90;;;;;;5010915;28;20044;-79
2023/08/20 02:00:14;;;;;;;3.92;1.92;;;18.50;99.90;;;;;;5011077;28;20044;-76
2023/08/20 02:02:41;;;;;;;4.72;2.20;;;18.50;99.90;;;;;;5008903;28;20486;-77
2023/08/20 02:05:07;;;;;;;5.82;2.00;;;18.40;99.90;;;;;;5011206;28;20794;-76
2023/08/20 02:07:34;;;;;;;3.13;1.58;;;18.40;99.90;;;;;;4994408;28;20795;-80
2023/08/20 02:10:00;;;;;;;4.43;1.92;;;18.40;99.90;;;;;;5017555;28;20032;-77
2023/08/20 02:12:27;;;;;;;4.72;1.63;;;18.30;99.90;;;;;;5019474;28;20303;-78
2023/08/20 02:14:53;;;;;;;4.63;2.70;;;18.30;99.90;;;;;;4997222;28;20040;-77
2023/08/20 02:17:23;;;;;;;4.22;2.42;;;18.20;99.90;;;;;;4992214;28;20048;-78
2023/08/20 02:19:50;;;;;;;5.90;2.80;;;18.20;99.90;;;;;;5009970;28;20046;-78
2023/08/20 02:22:17;;;;;;;3.30;2.20;;;18.10;99.90;;;;;;4994882;28;20037;-79
2023/08/20 02:24:43;;;;;;;8.45;3.58;;;18.10;99.90;;;;;;4994650;28;20055;-80
2023/08/20 02:27:10;;;;;;;7.78;4.40;;;18.10;99.90;;;;;;5010143;28;20025;-77
2023/08/20 02:29:37;;;;;;;7.60;4.65;;;18.10;99.90;;;;;;5013006;28;20056;-78
2023/08/20 02:32:03;;;;;;;7.82;4.53;;;18.20;99.90;;;;;;5020495;28;20813;-80
2023/08/20 02:34:30;;;;;;;7.90;3.63;;;18.10;99.90;;;;;;5018491;28;20032;-78
2023/08/20 02:36:56;;;;;;;6.13;2.90;;;18.10;99.90;;;;;;5015591;28;20025;-80
2023/08/20 02:39:24;;;;;;;5.15;3.03;;;18.10;99.90;;;;;;4996527;28;20044;-77
2023/08/20 02:41:51;;;;;;;6.60;2.72;;;18.00;99.90;;;;;;5009775;28;20037;-76
2023/08/20 02:44:17;;;;;;;6.93;3.00;;;18.00;99.90;;;;;;4989867;28;20535;-79
2023/08/20 02:46:44;;;;;;;8.40;3.25;;;18.00;99.90;;;;;;5011431;28;20064;-79
2023/08/20 02:49:12;;;;;;;5.28;3.45;;;17.90;99.90;;;;;;4994950;28;20595;-80
2023/08/20 02:51:38;;;;;;;5.70;3.20;;;17.90;99.90;;;;;;5011098;28;20060;-80
2023/08/20 02:54:05;;;;;;;7.55;4.40;;;17.90;99.90;;;;;;5017158;28;20458;-79
2023/08/20 02:56:31;;;;;;;7.28;4.65;;;17.80;99.90;;;;;;5003258;28;20037;-76
2023/08/20 02:58:57;;;;;;;7.07;4.75;;;17.80;99.90;;;;;;5018360;28;20057;-77
2023/08/20 03:01:26;;;;;;;7.55;5.15;;;17.80;99.90;;;;;;4993773;28;20044;-79
2023/08/20 03:03:54;;;;;;;6.38;4.65;;;17.80;99.90;;;;;;4986473;28;20598;-80
2023/08/20 03:06:20;;;;;;;6.43;3.65;;;17.70;99.90;;;;;;4979677;28;20041;-80
2023/08/20 03:08:47;;;;;;;6.32;3.67;;;17.70;99.90;;;;;;4993748;28;20041;-76
2023/08/20 03:11:13;;;;;;;7.20;3.53;;;17.70;99.90;;;;;;4995734;28;20048;-80
2023/08/20 03:13:40;;;;;;;4.68;2.60;;;17.60;99.90;;;;;;4981730;28;20033;-77
2023/08/20 03:16:06;;;;;;;7.65;3.92;;;17.60;99.90;;;;;;4989080;28;20040;-79
2023/08/20 03:18:33;;;;;;;4.93;3.17;;;17.50;99.90;;;;;;5024193;28;20040;-79
2023/08/20 03:20:59;;;;;;;8.27;3.67;;;17.50;99.90;;;;;;5022620;28;20651;-81
2023/08/20 03:23:25;;;;;;;5.88;3.72;;;17.50;99.90;;;;;;4999168;28;20487;-80
2023/08/20 03:25:52;;;;;;;8.77;3.80;;;17.50;99.90;;;;;;4997386;28;20028;-80
2023/08/20 03:28:19;;;;;;;3.75;2.80;;;17.50;99.90;;;;;;5000103;28;20049;-79
2023/08/20 03:30:45;;;;;;;5.80;3.08;;;17.40;99.90;;;;;;5031566;28;20029;-79
2023/08/20 03:33:16;;;;;;;5.95;2.95;;;17.40;99.90;;;;;;5014633;28;20482;-81
2023/08/20 03:35:43;;;;;;;5.13;3.10;;;17.30;99.90;;;;;;5012174;28;20047;-78
2023/08/20 03:38:10;;;;;;;5.45;3.92;;;17.30;99.90;;;;;;5024416;28;20496;-79
2023/08/20 03:40:37;;;;;;;6.05;3.95;;;17.30;99.90;;;;;;5020332;28;20480;-80
2023/08/20 03:43:04;;;;;;;3.60;2.90;;;17.30;99.90;;;;;;5017069;28;20040;-80
2023/08/20 03:45:30;;;;;;;3.83;2.70;;;17.30;99.90;;;;;;4999153;28;20845;-78
2023/08/20 03:47:57;;;;;;;7.63;4.13;;;17.20;99.90;;;;;;4998265;28;20044;-77
2023/08/20 03:50:24;;;;;;;5.28;3.28;;;17.20;99.90;;;;;;4998804;28;20483;-77
2023/08/20 03:52:50;;;;;;;5.60;2.38;;;17.20;99.90;;;;;;5014233;28;20041;-77
2023/08/20 03:55:17;;;;;;;4.97;2.78;;;17.10;99.90;;;;;;4997962;28;22660;-77
2023/08/20 03:57:43;;;;;;;7.28;3.65;;;17.10;99.90;;;;;;4991114;28;20040;-80
2023/08/20 04:00:11;;;;;;;3.90;2.53;;;17.10;99.90;;;;;;5002195;28;20041;-80
2023/08/20 04:02:45;;;;;;;5.13;3.00;;;17.10;99.90;;;;;;5005465;28;20037;-78
2023/08/20 04:05:12;;;;;;;4.63;4.00;;;17.10;99.90;;;;;;4981971;28;20045;-79
2023/08/20 04:07:38;;;;;;;6.78;3.15;;;17.10;99.90;;;;;;4997696;28;20041;-79
2023/08/20 04:10:05;;;;;;;4.72;3.30;;;17.00;99.90;;;;;;5014359;28;20033;-79
2023/08/20 04:12:32;;;;;;;4.38;3.33;;;17.00;99.90;;;;;;5012320;28;20555;-79
2023/08/20 04:14:58;;;;;;;5.70;2.90;;;17.00;99.90;;;;;;5013077;28;20045;-80
2023/08/20 04:17:25;;;;;;;6.25;2.88;;;17.00;99.90;;;;;;4998772;28;20052;-76
2023/08/20 04:19:52;;;;;;;5.55;3.63;;;17.00;99.90;;;;;;5017753;28;20037;-78
2023/08/20 04:22:19;;;;;;;6.00;4.03;;;17.00;99.90;;;;;;5003306;28;20050;-79
2023/08/20 04:24:45;;;;;;;5.93;3.53;;;16.90;99.90;;;;;;5003510;28;20044;-80
2023/08/20 04:27:11;;;;;;;4.78;3.50;;;16.90;99.90;;;;;;5019281;28;20033;-78
2023/08/20 04:29:41;;;;;;;5.43;4.15;;;16.90;99.90;;;;;;4997415;28;20033;-79
2023/08/20 04:32:08;;;;;;;5.47;3.80;;;16.90;99.90;;;;;;4996592;28;20864;-78
2023/08/20 04:34:34;;;;;;;6.40;4.45;;;16.90;99.90;;;;;;5011430;28;20480;-78
2023/08/20 04:37:00;;;;;;;6.70;4.32;;;16.90;99.90;;;;;;5012036;28;20048;-77
2023/08/20 04:39:27;;;;;;;4.85;3.65;;;16.90;99.90;;;;;;4981250;28;20059;-78
2023/08/20 04:41:57;;;;;;;5.70;3.70;;;16.90;99.90;;;;;;4996363;28;20037;-79
2023/08/20 04:44:24;;;;;;;5.53;3.17;;;16.90;99.90;;;;;;4988881;28;20483;-79
2023/08/20 04:46:53;;;;;;;5.75;3.22;;;16.90;99.90;;;;;;5002752;28;20033;-77
2023/08/20 04:49:20;;;;;;;5.68;4.38;;;16.90;99.90;;;;;;4979754;28;20057;-76
2023/08/20 04:51:46;;;;;;;7.57;4.50;;;16.90;99.90;;;;;;4982606;28;20427;-79
2023/08/20 04:54:12;;;;;;;6.85;4.00;;;17.00;99.90;;;;;;5010263;28;20395;-79
2023/08/20 04:56:39;;;;;;;5.95;3.50;;;17.00;99.90;;;;;;5009920;28;20468;-78
2023/08/20 04:59:06;;;;;;;6.15;3.63;;;17.00;99.90;;;;;;5012094;28;20033;-80
2023/08/20 05:01:52;;;;;;;5.93;3.20;;;17.00;99.90;;;;;;5015840;28;20049;-78
2023/08/20 05:04:33;;;;;;;7.25;3.50;;;17.00;99.90;;;;;;5008860;28;20774;-79
2023/08/20 05:07:00;;;;;;;3.63;2.38;;;17.10;99.90;;;;;;5004096;28;20047;-78
2023/08/20 05:09:27;;;;;;;4.25;2.33;;;17.10;99.90;;;;;;5018216;28;20025;-78
2023/08/20 05:11:53;;;;;;;4.63;2.67;;;17.10;99.90;;;;;;5012611;28;20044;-78
2023/08/20 05:14:20;;;;;;;6.40;2.60;;;17.20;99.90;;;;;;4977716;28;20534;-79
2023/08/20 05:16:46;;;;;;;3.63;2.22;;;17.20;99.90;;;;;;4980308;28;20040;-74
2023/08/20 05:19:13;;;;;;;5.57;2.40;;;17.30;99.90;;;;;;4995971;28;20336;-78
2023/08/20 05:21:39;;;;;;;4.47;2.30;;;17.30;99.90;;;;;;4995259;28;20033;-79
2023/08/20 05:24:06;;;;;;;4.80;1.95;;;17.40;99.90;;;;;;4995281;28;20109;-77
2023/08/20 05:26:34;;;;;;;5.93;2.55;;;17.40;99.90;;;;;;5020890;28;20036;-80
2023/08/20 05:29:01;;;;;;;7.20;2.40;;;17.40;99.90;;;;;;5020096;28;20032;-77
2023/08/20 05:31:28;;;;;;;5.90;2.20;;;17.50;99.90;;;;;;5014294;28;20049;-77
2023/08/20 05:33:54;;;;;;;4.55;1.92;;;17.50;99.90;;;;;;4992108;28;20066;-78
2023/08/20 05:36:21;;;;;;;4.70;2.08;;;17.50;99.90;;;;;;5008467;28;20713;-78
2023/08/20 05:38:48;;;;;;;4.72;1.80;;;17.50;99.90;;;;;;4974059;28;20037;-80
2023/08/20 05:41:14;;;;;;;3.60;1.52;;;17.60;99.90;;;;;;5011259;28;20639;-80
2023/08/20 05:43:40;;;;;;;6.18;1.90;;;17.60;99.90;;;;;;4993413;28;20060;-79
2023/08/20 05:46:07;;;;;;;4.07;1.50;;;17.70;99.90;;;;;;4998935;28;20029;-77
2023/08/20 05:48:34;;;;;;;3.75;1.50;;;17.80;99.90;;;;;;5017299;28;20468;-79
2023/08/20 05:51:02;;;;;;;3.22;1.27;;;17.80;99.90;;;;;;5003649;28;20037;-78
2023/08/20 05:53:30;;;;;;;4.43;1.30;;;18.00;99.90;;;;;;4996881;28;20045;-80
2023/08/20 05:55:56;;;;;;;4.53;1.27;;;18.10;99.90;;;;;;5010963;28;20028;-79
2023/08/20 05:58:22;;;;;;;2.97;1.02;;;18.30;99.90;;;;;;5000179;28;20492;-80
2023/08/20 06:00:49;;;;;;;3.33;1.13;;;18.40;99.90;;;;;;5025173;28;20051;-75
2023/08/20 06:03:15;;;;;;;3.22;0.93;;;18.60;99.90;;;;;;4979367;28;20025;-79
2023/08/20 06:05:42;;;;;;;3.90;0.98;;;18.80;99.90;;;;;;5009856;28;20034;-74
2023/08/20 06:08:08;;;;;;;3.67;0.70;;;19.00;99.90;;;;;;5014355;28;20037;-79
2023/08/20 06:10:35;;;;;;;5.57;1.00;;;19.30;99.90;;;;;;5021733;28;20040;-80
2023/08/20 06:13:01;;;;;;;4.53;1.27;;;19.50;99.90;;;;;;5018963;28;20041;-79
2023/08/20 06:15:28;;;;;;;2.80;1.00;;;19.70;99.90;;;;;;5013712;28;20046;-82
2023/08/20 06:17:54;;;;;;;4.35;0.98;;;20.00;99.90;;;;;;5025896;28;20044;-80
2023/08/20 06:20:20;;;;;;;4.75;1.17;;;20.10;99.90;;;;;;4994483;28;20065;-83
2023/08/20 06:22:47;;;;;;;3.67;1.02;;;20.30;99.90;;;;;;4993434;28;20507;-77
2023/08/20 06:25:13;;;;;;;3.42;1.08;;;20.40;99.90;;;;;;5011557;28;20045;-80
2023/08/20 06:27:41;;;;;;;4.13;1.02;;;20.50;99.90;;;;;;4995996;28;20037;-81
2023/08/20 06:30:09;;;;;;;5.13;1.88;;;20.60;99.90;;;;;;4975015;28;20120;-81
2023/08/20 06:32:35;;;;;;;6.38;1.17;;;20.70;99.90;;;;;;4998418;28;20060;-80
2023/08/20 06:35:01;;;;;;;11.77;3.97;;;20.80;99.90;;;;;;5021230;28;20033;-76
2023/08/20 06:37:28;;;;;;;5.85;1.63;;;20.90;99.90;;;;;;5014465;28;20056;-75
2023/08/20 06:39:54;;;;;;;4.22;1.55;;;21.00;99.90;;;;;;5010121;28;20041;-80
2023/08/20 06:42:20;;;;;;;6.10;1.77;;;21.10;99.90;;;;;;4993421;28;20407;-81
2023/08/20 06:44:47;;;;;;;7.82;1.38;;;21.40;99.90;;;;;;4994081;28;20739;-76
2023/08/20 06:47:14;;;;;;;3.45;0.80;;;21.60;99.90;;;;;;4993872;28;20045;-75
2023/08/20 06:49:41;;;;;;;12.07;8.05;;;21.70;99.90;;;;;;4995994;28;20526;-78
2023/08/20 06:52:07;;;;;;;17.55;13.30;;;21.90;99.90;;;;;;5013325;28;20033;-80
2023/08/20 06:54:33;;;;;;;9.68;6.30;;;22.00;99.90;;;;;;5024735;28;20108;-80
2023/08/20 06:57:01;;;;;;;6.72;3.63;;;22.20;99.90;;;;;;5024513;28;20041;-78
2023/08/20 06:59:27;;;;;;;5.05;1.92;;;22.40;99.90;;;;;;4985726;28;20498;-81
2023/08/20 07:01:53;;;;;;;9.82;2.40;;;22.80;99.90;;;;;;5011561;28;20025;-80
2023/08/20 07:04:20;;;;;;;4.20;1.20;;;23.00;99.90;;;;;;4994208;28;20033;-79
2023/08/20 07:06:46;;;;;;;5.75;1.90;;;23.20;99.90;;;;;;5013259;28;20521;-75
2023/08/20 07:09:13;;;;;;;5.03;2.00;;;23.30;99.90;;;;;;5012008;28;20688;-82
2023/08/20 07:11:40;;;;;;;4.78;1.83;;;23.30;99.90;;;;;;5010888;28;20039;-79
2023/08/20 07:14:06;;;;;;;6.13;1.70;;;23.30;99.90;;;;;;5017006;28;20025;-82
2023/08/20 07:16:32;;;;;;;3.35;1.00;;;23.30;99.90;;;;;;5003844;28;20256;-82
2023/08/20 07:18:59;;;;;;;4.93;1.10;;;23.30;99.90;;;;;;5019767;28;20383;-77
2023/08/20 07:21:25;;;;;;;4.05;1.15;;;23.30;99.90;;;;;;5016381;28;20399;-79
2023/08/20 07:23:52;;;;;;;3.30;1.00;;;23.30;99.90;;;;;;5012584;28;20033;-82
2023/08/20 07:26:18;;;;;;;4.97;1.20;;;23.30;99.90;;;;;;5013394;28;20037;-80
2023/08/20 07:28:56;;;;;;;3.65;1.10;;;23.30;99.90;;;;;;5012124;28;20033;-83
2023/08/20 07:31:29;;;;;;;6.35;1.30;;;23.30;99.90;;;;;;5012554;28;20090;-79
2023/08/20 07:33:57;;;;;;;5.00;1.15;;;23.40;99.90;;;;;;4972672;28;20025;-82
2023/08/20 07:36:25;;;;;;;3.13;0.88;;;23.40;99.90;;;;;;4998626;28;20028;-82
2023/08/20 07:38:54;;;;;;;3.88;0.85;;;23.50;99.90;;;;;;5021583;28;20052;-80
2023/08/20 07:41:21;;;;;;;4.97;1.90;;;23.60;99.90;;;;;;4990367;28;20312;-79
2023/08/20 07:43:48;;;;;;;6.55;1.27;;;23.70;99.90;;;;;;4999039;28;20831;-81
2023/08/20 07:46:15;;;;;;;5.32;1.10;;;23.80;99.90;;;;;;5012241;28;20426;-81
2023/08/20 07:48:43;;;;;;;4.70;1.00;;;23.80;99.90;;;;;;4997097;28;20049;-83
2023/08/20 07:51:09;;;;;;;4.78;0.70;;;23.80;99.90;;;;;;5012184;28;20404;-80
2023/08/20 07:53:35;;;;;;;4.10;0.80;;;23.90;99.90;;;;;;4981398;28;20034;-75
2023/08/20 07:56:02;;;;;;;3.25;0.82;;;24.00;99.90;;;;;;5014937;28;20353;-79
2023/08/20 07:58:29;;;;;;;3.85;0.90;;;24.00;99.90;;;;;;5023115;28;20032;-76
2023/08/20 08:00:56;;;;;;;3.10;0.50;;;24.00;99.90;;;;;;5019452;28;20555;-79
2023/08/20 08:03:24;;;;;;;1.80;0.40;;;24.10;99.90;;;;;;5021084;28;20040;-80
2023/08/20 08:05:51;;;;;;;2.53;0.47;;;24.10;99.90;;;;;;5012877;28;20395;-78
2023/08/20 08:08:18;;;;;;;2.50;0.50;;;24.30;99.90;;;;;;4998187;28;20029;-76
2023/08/20 08:10:45;;;;;;;2.75;0.50;;;24.30;99.90;;;;;;5001207;28;20708;-79
2023/08/20 08:13:14;;;;;;;2.00;0.50;;;24.40;99.90;;;;;;5013556;28;20535;-77
2023/08/20 08:15:40;;;;;;;2.75;0.38;;;24.60;99.90;;;;;;4980278;28;20491;-76
2023/08/20 08:18:07;;;;;;;2.58;0.60;;;24.70;99.90;;;;;;4994022;28;20108;-76
2023/08/20 08:20:34;;;;;;;2.30;0.50;;;24.80;99.90;;;;;;5016609;28;20087;-81
2023/08/20 08:23:01;;;;;;;1.35;0.50;;;24.90;99.90;;;;;;5004859;28;20437;-80
2023/08/20 08:25:28;;;;;;;1.50;0.40;;;25.00;99.90;;;;;;5008000;28;20402;-79
2023/08/20 08:27:55;;;;;;;1.88;0.40;;;25.00;99.90;;;;;;5016894;28;20036;-74
2023/08/20 08:30:21;;;;;;;2.28;0.43;;;25.10;99.90;;;;;;5029285;28;20032;-78
2023/08/20 08:32:47;;;;;;;2.90;0.50;;;25.10;99.90;;;;;;4995182;28;20044;-76
2023/08/20 08:35:14;;;;;;;1.60;0.50;;;25.30;99.90;;;;;;5013466;28;20032;-79
2023/08/20 08:37:40;;;;;;;3.33;0.63;;;25.30;99.90;;;;;;5007437;28;20033;-79
2023/08/20 08:40:08;;;;;;;2.00;0.50;;;25.40;99.90;;;;;;5007368;28;20042;-78
2023/08/20 08:42:34;;;;;;;3.10;0.57;;;25.40;99.90;;;;;;5029624;28;21155;-76
2023/08/20 08:45:03;;;;;;;1.58;0.40;;;25.50;99.90;;;;;;5017651;28;20064;-78
2023/08/20 08:47:30;;;;;;;5.78;0.75;;;25.60;99.90;;;;;;5019797;28;20040;-82
2023/08/20 08:49:57;;;;;;;1.55;0.40;;;25.70;99.90;;;;;;4995589;28;20033;-83
2023/08/20 08:52:24;;;;;;;2.40;0.50;;;25.80;99.90;;;;;;5010371;28;20163;-81
2023/08/20 08:54:52;;;;;;;1.02;0.40;;;25.90;99.90;;;;;;5010981;28;20958;-83
2023/08/20 08:57:18;;;;;;;2.95;0.40;;;26.00;99.90;;;;;;5011931;28;20059;-78
2023/08/20 08:59:45;;;;;;;6.55;0.60;;;26.10;99.90;;;;;;4997930;28;20051;-80
2023/08/20 09:02:13;;;;;;;1.50;0.40;;;26.10;99.90;;;;;;5010031;28;20040;-80
2023/08/20 09:04:42;;;;;;;7.05;4.78;;;26.10;99.90;;;;;;4984971;28;20044;-83
2023/08/20 09:07:13;;;;;;;2.38;1.58;;;26.20;99.90;;;;;;5018107;28;20103;-80
2023/08/20 09:09:45;;;;;;;4.68;1.60;;;26.20;99.90;;;;;;5015658;28;20033;-78
2023/08/20 09:12:15;;;;;;;3.85;2.35;;;26.20;99.90;;;;;;5012653;28;20403;-78
2023/08/20 09:14:50;;;;;;;1.52;0.70;;;26.30;99.90;;;;;;5010633;28;20189;-78
2023/08/20 09:17:17;;;;;;;1.92;0.60;;;26.40;99.90;;;;;;5010158;28;20041;-83
2023/08/20 09:19:45;;;;;;;2.53;0.50;;;26.40;99.90;;;;;;4995035;28;20053;-76
2023/08/20 09:22:15;;;;;;;2.85;0.50;;;26.50;99.90;;;;;;4993798;28;20582;-73
2023/08/20 09:24:47;;;;;;;1.63;0.43;;;26.70;99.90;;;;;;5007671;28;20391;-75
2023/08/20 09:27:14;;;;;;;1.38;0.40;;;26.80;99.90;;;;;;5017073;28;20510;-75
2023/08/20 09:29:47;;;;;;;1.30;0.40;;;26.80;99.90;;;;;;5015840;28;20025;-76
2023/08/20 09:32:16;;;;;;;0.88;0.30;;;26.90;99.90;;;;;;5012472;28;20037;-75
2023/08/20 09:34:43;;;;;;;3.15;0.70;;;27.00;99.90;;;;;;4991651;28;20048;-73
2023/08/20 09:37:14;;;;;;;2.95;0.30;;;27.10;99.90;;;;;;5010735;28;20040;-74
2023/08/20 09:39:41;;;;;;;2.37;0.30;;;27.20;99.90;;;;;;5007271;28;20559;-73
2023/08/20 09:42:08;;;;;;;0.75;0.28;;;27.30;99.90;;;;;;5010395;28;20658;-76
2023/08/20 09:44:39;;;;;;;1.45;0.30;;;27.40;99.90;;;;;;4992496;28;20370;-71
2023/08/20 09:47:08;;;;;;;1.10;0.40;;;27.50;99.90;;;;;;5000368;28;20052;-73
2023/08/20 09:49:43;;;;;;;1.50;0.32;;;27.60;99.90;;;;;;5020540;28;20472;-76
2023/08/20 09:52:12;;;;;;;1.27;0.40;;;27.70;99.90;;;;;;5018791;28;20562;-74
2023/08/20 09:55:09;;;;;;;2.67;0.35;;;27.70;99.90;;;;;;4980748;28;20045;-75
2023/08/20 09:57:37;;;;;;;0.80;0.28;;;27.80;99.90;;;;;;5011511;28;20037;-77
2023/08/20 10:00:09;;;;;;;1.98;0.40;;;27.90;99.90;;;;;;5012497;28;20041;-73
2023/08/20 10:02:44;;;;;;;2.03;0.40;;;28.00;99.90;;;;;;5007005;28;20061;-74
2023/08/20 10:05:12;;;;;;;1.40;1.00;;;28.10;99.90;;;;;;5009689;28;20378;-76
2023/08/20 10:07:38;;;;;;;3.97;2.42;;;28.20;99.90;;;;;;5011467;28;20032;-74
2023/08/20 10:10:13;;;;;;;12.35;11.00;;;28.30;99.90;;;;;;4997192;28;20041;-75
2023/08/20 10:12:41;;;;;;;5.07;3.33;;;28.30;99.80;;;;;;4989692;28;20565;-76
2023/08/20 10:15:09;;;;;;;7.38;4.93;;;28.30;98.90;;;;;;5018288;28;20369;-78
2023/08/20 10:17:38;;;;;;;2.60;1.42;;;28.40;99.00;;;;;;5012486;28;20050;-76
2023/08/20 10:20:05;;;;;;;13.82;12.00;;;28.40;98.50;;;;;;5010325;28;20040;-78
2023/08/20 10:22:43;;;;;;;6.82;5.88;;;28.50;98.40;;;;;;5016054;28;20048;-78
2023/08/20 10:25:22;;;;;;;3.40;1.50;;;28.70;98.40;;;;;;5010811;28;20041;-77
2023/08/20 10:27:49;;;;;;;1.85;0.60;;;28.90;98.20;;;;;;4996251;28;20045;-73
2023/08/20 10:30:24;;;;;;;2.35;0.40;;;29.20;98.00;;;;;;5011932;28;20033;-77
2023/08/20 10:32:55;;;;;;;0.77;0.30;;;29.40;97.50;;;;;;5025375;28;20025;-77
2023/08/20 10:35:37;;;;;;;1.03;0.30;;;29.70;96.60;;;;;;5020973;28;20037;-77
2023/08/20 10:38:04;;;;;;;;;;;30.00;96.30;;;;;;5017639;28;20048;-76
2023/08/20 10:40:58;;;;;;;2.67;0.45;;;30.30;96.10;;;;;;5013160;28;19927;-73
2023/08/20 10:43:27;;;;;;;1.90;0.60;;;30.70;95.60;;;;;;4975915;28;20597;-75
2023/08/20 10:46:17;;;;;;;2.22;0.75;;;31.00;94.90;;;;;;5012450;28;20048;-74
2023/08/20 10:48:54;;;;;;;1.83;0.57;;;31.30;94.00;;;;;;5013121;28;20400;-73
2023/08/20 10:51:34;;;;;;;1.58;0.40;;;31.70;93.50;;;;;;5016358;28;20044;-74
2023/08/20 10:54:00;;;;;;;1.90;0.50;;;32.00;92.40;;;;;;4991182;28;20036;-75
2023/08/20 10:56:46;;;;;;;2.58;0.60;;;32.10;91.30;;;;;;5023004;28;20443;-77
2023/08/20 10:59:23;;;;;;;1.38;0.40;;;32.50;90.90;;;;;;5020529;28;20503;-72
2023/08/20 11:01:51;;;;;;;2.05;0.60;;;32.90;90.60;;;;;;5012561;28;20029;-76
2023/08/20 11:04:20;;;;;;;1.83;0.50;;;33.20;90.00;;;;;;4994459;28;22434;-76
2023/08/20 11:06:49;;;;;;;0.93;0.35;;;33.60;88.90;;;;;;4995364;28;20041;-78
2023/08/20 11:09:17;;;;;;;2.28;0.52;;;33.90;86.50;;;;;;4990767;28;20037;-75
2023/08/20 11:11:44;;;;;;;9.68;8.35;;;34.20;84.00;;;;;;5012445;28;20328;-78
2023/08/20 11:14:14;;;;;;;3.38;1.92;;;34.40;82.30;;;;;;4994400;28;20048;-79
2023/08/20 11:16:43;;;;;;;1.67;0.60;;;34.80;80.90;;;;;;5000120;28;20036;-81
2023/08/20 11:19:09;;;;;;;3.30;0.65;;;34.80;79.50;;;;;;5002308;28;20040;-76
2023/08/20 11:21:37;;;;;;;1.33;0.40;;;34.90;77.70;;;;;;5002098;28;20044;-76
2023/08/20 11:24:05;;;;;;;6.63;5.70;;;35.10;76.90;;;;;;5011463;28;20052;-79
2023/08/20 11:26:32;;;;;;;3.22;2.33;;;35.30;75.20;;;;;;5010059;28;20029;-77
2023/08/20 11:28:58;;;;;;;13.43;12.23;;;35.30;73.70;;;;;;5012683;28;20037;-74
2023/08/20 11:31:25;;;;;;;3.70;1.40;;;35.60;72.70;;;;;;4973884;28;20443;-75
2023/08/20 11:33:52;;;;;;;1.92;0.60;;;35.90;71.10;;;;;;5010380;28;21596;-74
2023/08/20 11:36:21;;;;;;;1.40;0.40;;;36.10;69.00;;;;;;4981319;28;20696;-77
2023/08/20 11:38:52;;;;;;;2.28;0.43;;;36.30;68.70;;;;;;5018934;28;20038;-73
2023/08/20 11:41:19;;;;;;;2.67;0.40;;;36.40;67.20;;;;;;5019980;28;20705;-80
2023/08/20 11:43:50;;;;;;;1.33;0.30;;;36.50;65.90;;;;;;5015087;28;22068;-75
2023/08/20 11:46:19;;;;;;;1.25;0.40;;;36.70;65.50;;;;;;5007799;28;20048;-74
2023/08/20 11:49:08;;;;;;;1.60;0.40;;;36.90;65.10;;;;;;5027543;28;20052;-76
2023/08/20 11:51:39;;;;;;;1.50;0.40;;;37.10;64.00;;;;;;5014916;28;20044;-77
2023/08/20 11:54:07;;;;;;;5.05;3.47;;;37.20;63.70;;;;;;5003304;28;20043;-73
2023/08/20 11:56:34;;;;;;;7.18;5.18;;;37.40;63.10;;;;;;4977803;28;20607;-77
2023/08/20 11:59:02;;;;;;;3.53;1.40;;;37.70;62.40;;;;;;5016330;28;20041;-78
2023/08/20 12:01:32;;;;;;;1.88;0.68;;;37.80;61.50;;;;;;4990141;28;20039;-79
2023/08/20 12:04:04;;;;;;;2.05;0.55;;;38.10;60.60;;;;;;5002739;28;20033;-79
2023/08/20 12:06:31;;;;;;;3.03;0.73;;;38.20;59.80;;;;;;5009136;28;20032;-76
2023/08/20 12:08:58;;;;;;;5.63;1.73;;;38.30;59.20;;;;;;4996446;28;20037;-79
2023/08/20 12:11:26;;;;;;;4.78;1.00;;;38.50;59.70;;;;;;5010766;28;20466;-75
2023/08/20 12:13:53;;;;;;;5.55;0.65;;;38.90;58.60;;;;;;5011826;28;20025;-76
2023/08/20 12:16:22;;;;;;;4.65;2.55;;;39.20;58.40;;;;;;5011386;28;20041;-79
2023/08/20 12:18:48;;;;;;;2.17;0.50;;;39.40;57.70;;;;;;5014098;28;20045;-79
2023/08/20 12:21:15;;;;;;;2.35;0.50;;;39.70;57.90;;;;;;5018091;28;20037;-75
2023/08/20 12:23:41;;;;;;;2.33;1.27;;;39.90;56.70;;;;;;5017746;28;20040;-78
2023/08/20 12:26:08;;;;;;;1.45;0.52;;;40.00;55.20;;;;;;5021451;28;20048;-80
2023/08/20 12:28:35;;;;;;;2.33;0.50;;;40.20;55.50;;;;;;4981916;28;20029;-81
2023/08/20 12:31:02;;;;;;;2.13;0.40;;;40.30;54.50;;;;;;5014122;28;20041;-78
2023/08/20 12:33:29;;;;;;;2.38;0.40;;;40.60;54.60;;;;;;4987624;28;20592;-77
2023/08/20 12:35:56;;;;;;;2.42;0.40;;;40.80;54.00;;;;;;4995153;28;21672;-78
2023/08/20 12:38:22;;;;;;;1.70;0.43;;;40.90;53.30;;;;;;4994475;28;20032;-79
2023/08/20 12:40:49;;;;;;;1.90;0.40;;;41.10;51.60;;;;;;4994000;28;20523;-80
2023/08/20 12:43:16;;;;;;;2.70;0.45;;;41.00;52.20;;;;;;5016939;28;20032;-77
2023/08/20 12:45:42;;;;;;;2.13;0.40;;;41.30;52.30;;;;;;4996465;28;20067;-78
2023/08/20 12:48:09;;;;;;;1.73;0.40;;;41.30;51.10;;;;;;5004437;28;20033;-75
2023/08/20 12:50:35;;;;;;;2.33;0.40;;;41.40;51.50;;;;;;5008393;28;20036;-78
2023/08/20 12:53:02;;;;;;;1.85;0.30;;;41.70;51.20;;;;;;5009153;28;20040;-78